sensor_id;sensor_type;location;lat;lon;timestamp;P1;durP1;ratioP1;P2;durP2;ratioP2
6850;SDS011;3464;42.728;23.296;2022-07-22T00:02:15;16.30;;;5.80;;
6850;SDS011;3464;42.728;23.296;2022-07-22T00:05:04;18.10;;;5.67;;
6850;SDS011;3464;42.728;23.296;2022-07-22T00:07:53;18.47;;;5.57;;
6850;SDS011;3464;42.728;23.296;2022-07-22T00:10:42;16.53;;;5.00;;
6850;SDS011;3464;42.728;23.296;2022-07-22T00:13:31;15.07;;;5.60;;
6850;SDS011;3464;42.728;23.296;2022-07-22T00:16:20;21.87;;;6.07;;
6850;SDS011;3464;42.728;23.296;2022-07-22T00:19:09;13.53;;;5.73;;
6850;SDS011;3464;42.728;23.296;2022-07-22T00:21:58;14.40;;;5.90;;
6850;SDS011;3464;42.728;23.296;2022-07-22T00:24:47;17.77;;;5.80;;
6850;SDS011;3464;42.728;23.296;2022-07-22T00:27:36;15.70;;;6.23;;
6850;SDS011;3464;42.728;23.296;2022-07-22T00:30:25;18.27;;;5.60;;
6850;SDS011;3464;42.728;23.296;2022-07-22T00:33:14;16.40;;;5.90;;
6850;SDS011;3464;42.728;23.296;2022-07-22T00:36:04;14.23;;;5.73;;
6850;SDS011;3464;42.728;23.296;2022-07-22T00:38:53;13.77;;;6.10;;
6850;SDS011;3464;42.728;23.296;2022-07-22T00:41:43;15.57;;;6.10;;
6850;SDS011;3464;42.728;23.296;2022-07-22T00:44:32;18.90;;;6.87;;
6850;SDS011;3464;42.728;23.296;2022-07-22T00:47:22;15.53;;;6.10;;
6850;SDS011;3464;42.728;23.296;2022-07-22T00:50:12;17.23;;;6.20;;
6850;SDS011;3464;42.728;23.296;2022-07-22T00:53:01;14.30;;;6.13;;
6850;SDS011;3464;42.728;23.296;2022-07-22T00:55:51;18.20;;;6.50;;
6850;SDS011;3464;42.728;23.296;2022-07-22T00:58:41;23.30;;;7.20;;
6850;SDS011;3464;42.728;23.296;2022-07-22T01:01:29;18.27;;;7.10;;
6850;SDS011;3464;42.728;23.296;2022-07-22T01:04:18;14.50;;;6.57;;
6850;SDS011;3464;42.728;23.296;2022-07-22T01:07:07;19.83;;;7.00;;
6850;SDS011;3464;42.728;23.296;2022-07-22T01:09:56;19.47;;;7.00;;
6850;SDS011;3464;42.728;23.296;2022-07-22T01:12:46;15.27;;;7.23;;
6850;SDS011;3464;42.728;23.296;2022-07-22T01:15:35;20.43;;;7.90;;
6850;SDS011;3464;42.728;23.296;2022-07-22T01:18:24;18.80;;;6.90;;
6850;SDS011;3464;42.728;23.296;2022-07-22T01:21:13;25.77;;;7.20;;
6850;SDS011;3464;42.728;23.296;2022-07-22T01:24:03;17.80;;;6.60;;
6850;SDS011;3464;42.728;23.296;2022-07-22T01:26:51;15.33;;;6.37;;
6850;SDS011;3464;42.728;23.296;2022-07-22T01:29:40;15.90;;;6.43;;
6850;SDS011;3464;42.728;23.296;2022-07-22T01:32:29;19.40;;;6.53;;
6850;SDS011;3464;42.728;23.296;2022-07-22T01:35:18;15.13;;;6.30;;
6850;SDS011;3464;42.728;23.296;2022-07-22T01:38:07;18.40;;;6.70;;
6850;SDS011;3464;42.728;23.296;2022-07-22T01:40:57;16.47;;;7.00;;
6850;SDS011;3464;42.728;23.296;2022-07-22T01:43:46;18.17;;;6.10;;
6850;SDS011;3464;42.728;23.296;2022-07-22T01:46:35;20.33;;;6.43;;
6850;SDS011;3464;42.728;23.296;2022-07-22T01:49:25;16.50;;;6.57;;
6850;SDS011;3464;42.728;23.296;2022-07-22T01:52:15;24.90;;;7.30;;
6850;SDS011;3464;42.728;23.296;2022-07-22T01:55:05;15.23;;;6.93;;
6850;SDS011;3464;42.728;23.296;2022-07-22T01:57:54;22.03;;;7.30;;
6850;SDS011;3464;42.728;23.296;2022-07-22T02:00:44;18.70;;;6.93;;
6850;SDS011;3464;42.728;23.296;2022-07-22T02:03:33;14.73;;;6.63;;
6850;SDS011;3464;42.728;23.296;2022-07-22T02:06:22;18.03;;;7.03;;
6850;SDS011;3464;42.728;23.296;2022-07-22T02:09:11;19.33;;;7.33;;
6850;SDS011;3464;42.728;23.296;2022-07-22T02:12:01;18.00;;;7.60;;
6850;SDS011;3464;42.728;23.296;2022-07-22T02:14:49;18.73;;;7.40;;
6850;SDS011;3464;42.728;23.296;2022-07-22T02:17:39;14.80;;;6.73;;
6850;SDS011;3464;42.728;23.296;2022-07-22T02:20:28;17.43;;;7.30;;
6850;SDS011;3464;42.728;23.296;2022-07-22T02:23:18;21.80;;;7.50;;
6850;SDS011;3464;42.728;23.296;2022-07-22T02:26:06;17.53;;;7.03;;
6850;SDS011;3464;42.728;23.296;2022-07-22T02:28:55;15.03;;;7.10;;
6850;SDS011;3464;42.728;23.296;2022-07-22T02:31:44;17.37;;;7.93;;
6850;SDS011;3464;42.728;23.296;2022-07-22T02:34:33;19.43;;;8.27;;
6850;SDS011;3464;42.728;23.296;2022-07-22T02:37:22;19.60;;;7.97;;
6850;SDS011;3464;42.728;23.296;2022-07-22T02:40:11;21.43;;;8.53;;
6850;SDS011;3464;42.728;23.296;2022-07-22T02:43:00;21.43;;;7.87;;
6850;SDS011;3464;42.728;23.296;2022-07-22T02:45:50;19.27;;;8.23;;
6850;SDS011;3464;42.728;23.296;2022-07-22T02:48:39;17.37;;;7.50;;
6850;SDS011;3464;42.728;23.296;2022-07-22T02:51:28;18.17;;;7.60;;
6850;SDS011;3464;42.728;23.296;2022-07-22T02:54:18;18.93;;;7.77;;
6850;SDS011;3464;42.728;23.296;2022-07-22T02:57:08;22.03;;;8.60;;
6850;SDS011;3464;42.728;23.296;2022-07-22T02:59:57;17.80;;;8.20;;
6850;SDS011;3464;42.728;23.296;2022-07-22T03:02:45;19.93;;;8.37;;
6850;SDS011;3464;42.728;23.296;2022-07-22T03:05:34;17.37;;;7.20;;
6850;SDS011;3464;42.728;23.296;2022-07-22T03:08:24;16.50;;;7.60;;
6850;SDS011;3464;42.728;23.296;2022-07-22T03:11:14;21.40;;;7.70;;
6850;SDS011;3464;42.728;23.296;2022-07-22T03:14:03;18.03;;;7.77;;
6850;SDS011;3464;42.728;23.296;2022-07-22T03:16:52;15.93;;;7.93;;
6850;SDS011;3464;42.728;23.296;2022-07-22T03:19:41;16.70;;;7.70;;
6850;SDS011;3464;42.728;23.296;2022-07-22T03:22:32;17.33;;;7.67;;
6850;SDS011;3464;42.728;23.296;2022-07-22T03:25:21;18.97;;;7.90;;
6850;SDS011;3464;42.728;23.296;2022-07-22T03:28:09;20.10;;;8.33;;
6850;SDS011;3464;42.728;23.296;2022-07-22T03:30:58;21.07;;;8.17;;
6850;SDS011;3464;42.728;23.296;2022-07-22T03:33:47;18.30;;;7.60;;
6850;SDS011;3464;42.728;23.296;2022-07-22T03:36:36;24.80;;;8.70;;
6850;SDS011;3464;42.728;23.296;2022-07-22T03:39:26;16.73;;;7.63;;
6850;SDS011;3464;42.728;23.296;2022-07-22T03:42:15;17.67;;;7.43;;
6850;SDS011;3464;42.728;23.296;2022-07-22T03:45:04;20.57;;;8.80;;
6850;SDS011;3464;42.728;23.296;2022-07-22T03:47:53;15.53;;;7.13;;
6850;SDS011;3464;42.728;23.296;2022-07-22T03:50:42;19.20;;;7.00;;
6850;SDS011;3464;42.728;23.296;2022-07-22T03:53:31;19.43;;;8.60;;
6850;SDS011;3464;42.728;23.296;2022-07-22T03:56:20;21.60;;;8.43;;
6850;SDS011;3464;42.728;23.296;2022-07-22T03:59:09;20.93;;;8.13;;
6850;SDS011;3464;42.728;23.296;2022-07-22T04:01:58;18.97;;;8.90;;
6850;SDS011;3464;42.728;23.296;2022-07-22T04:04:47;19.57;;;7.70;;
6850;SDS011;3464;42.728;23.296;2022-07-22T04:07:36;18.00;;;7.40;;
6850;SDS011;3464;42.728;23.296;2022-07-22T04:10:25;19.70;;;7.63;;
6850;SDS011;3464;42.728;23.296;2022-07-22T04:13:15;20.63;;;7.30;;
6850;SDS011;3464;42.728;23.296;2022-07-22T04:16:05;24.33;;;7.60;;
6850;SDS011;3464;42.728;23.296;2022-07-22T04:18:54;18.50;;;7.30;;
6850;SDS011;3464;42.728;23.296;2022-07-22T04:21:44;21.93;;;7.80;;
6850;SDS011;3464;42.728;23.296;2022-07-22T04:24:33;18.07;;;8.20;;
6850;SDS011;3464;42.728;23.296;2022-07-22T04:27:23;18.57;;;7.50;;
6850;SDS011;3464;42.728;23.296;2022-07-22T04:30:15;20.73;;;7.77;;
6850;SDS011;3464;42.728;23.296;2022-07-22T04:33:04;24.23;;;7.63;;
6850;SDS011;3464;42.728;23.296;2022-07-22T04:35:53;27.93;;;7.80;;
6850;SDS011;3464;42.728;23.296;2022-07-22T04:38:42;25.43;;;7.77;;
6850;SDS011;3464;42.728;23.296;2022-07-22T04:41:31;18.07;;;6.60;;
6850;SDS011;3464;42.728;23.296;2022-07-22T04:44:22;19.00;;;6.70;;
6850;SDS011;3464;42.728;23.296;2022-07-22T04:47:11;20.07;;;6.37;;
6850;SDS011;3464;42.728;23.296;2022-07-22T04:50:01;20.37;;;6.70;;
6850;SDS011;3464;42.728;23.296;2022-07-22T04:52:50;23.07;;;6.77;;
6850;SDS011;3464;42.728;23.296;2022-07-22T04:55:39;17.00;;;6.63;;
6850;SDS011;3464;42.728;23.296;2022-07-22T04:58:27;17.97;;;6.60;;
6850;SDS011;3464;42.728;23.296;2022-07-22T05:01:18;15.93;;;5.90;;
6850;SDS011;3464;42.728;23.296;2022-07-22T05:04:08;18.90;;;6.30;;
6850;SDS011;3464;42.728;23.296;2022-07-22T05:06:57;18.20;;;6.60;;
6850;SDS011;3464;42.728;23.296;2022-07-22T05:09:47;17.53;;;7.07;;
6850;SDS011;3464;42.728;23.296;2022-07-22T05:12:37;20.70;;;7.70;;
6850;SDS011;3464;42.728;23.296;2022-07-22T05:15:27;18.97;;;6.97;;
6850;SDS011;3464;42.728;23.296;2022-07-22T05:18:16;17.63;;;7.23;;
6850;SDS011;3464;42.728;23.296;2022-07-22T05:21:05;21.53;;;7.13;;
6850;SDS011;3464;42.728;23.296;2022-07-22T05:23:55;19.10;;;7.00;;
6850;SDS011;3464;42.728;23.296;2022-07-22T05:26:45;20.10;;;7.57;;
6850;SDS011;3464;42.728;23.296;2022-07-22T05:29:34;20.17;;;7.47;;
6850;SDS011;3464;42.728;23.296;2022-07-22T05:32:23;19.03;;;7.07;;
6850;SDS011;3464;42.728;23.296;2022-07-22T05:35:12;17.77;;;6.50;;
6850;SDS011;3464;42.728;23.296;2022-07-22T05:38:02;16.50;;;6.87;;
6850;SDS011;3464;42.728;23.296;2022-07-22T05:40:51;25.10;;;6.87;;
6850;SDS011;3464;42.728;23.296;2022-07-22T05:43:42;16.40;;;6.50;;
6850;SDS011;3464;42.728;23.296;2022-07-22T05:46:31;15.03;;;6.30;;
6850;SDS011;3464;42.728;23.296;2022-07-22T05:49:20;20.73;;;5.97;;
6850;SDS011;3464;42.728;23.296;2022-07-22T05:52:09;18.70;;;6.40;;
6850;SDS011;3464;42.728;23.296;2022-07-22T05:54:59;15.83;;;5.50;;
6850;SDS011;3464;42.728;23.296;2022-07-22T05:57:48;15.57;;;5.13;;
6850;SDS011;3464;42.728;23.296;2022-07-22T06:00:39;13.63;;;5.50;;
6850;SDS011;3464;42.728;23.296;2022-07-22T06:03:29;13.80;;;5.30;;
6850;SDS011;3464;42.728;23.296;2022-07-22T06:06:18;20.40;;;6.17;;
6850;SDS011;3464;42.728;23.296;2022-07-22T06:09:11;17.67;;;6.83;;
6850;SDS011;3464;42.728;23.296;2022-07-22T06:12:00;17.90;;;5.97;;
6850;SDS011;3464;42.728;23.296;2022-07-22T06:14:50;19.67;;;6.03;;
6850;SDS011;3464;42.728;23.296;2022-07-22T06:17:39;26.07;;;6.27;;
6850;SDS011;3464;42.728;23.296;2022-07-22T06:20:28;17.80;;;6.10;;
6850;SDS011;3464;42.728;23.296;2022-07-22T06:23:17;16.17;;;6.20;;
6850;SDS011;3464;42.728;23.296;2022-07-22T06:26:07;18.77;;;5.47;;
6850;SDS011;3464;42.728;23.296;2022-07-22T06:28:57;21.17;;;6.23;;
6850;SDS011;3464;42.728;23.296;2022-07-22T06:31:47;19.37;;;5.77;;
6850;SDS011;3464;42.728;23.296;2022-07-22T06:34:38;16.23;;;6.00;;
6850;SDS011;3464;42.728;23.296;2022-07-22T06:37:26;15.90;;;5.97;;
6850;SDS011;3464;42.728;23.296;2022-07-22T06:40:16;18.00;;;6.50;;
6850;SDS011;3464;42.728;23.296;2022-07-22T06:43:06;18.50;;;6.70;;
6850;SDS011;3464;42.728;23.296;2022-07-22T06:45:56;22.13;;;6.27;;
6850;SDS011;3464;42.728;23.296;2022-07-22T06:48:47;22.00;;;6.10;;
6850;SDS011;3464;42.728;23.296;2022-07-22T06:51:36;21.20;;;5.73;;
6850;SDS011;3464;42.728;23.296;2022-07-22T06:54:26;17.10;;;5.97;;
6850;SDS011;3464;42.728;23.296;2022-07-22T06:57:17;21.00;;;5.77;;
6850;SDS011;3464;42.728;23.296;2022-07-22T07:00:06;16.63;;;6.13;;
6850;SDS011;3464;42.728;23.296;2022-07-22T07:02:57;16.00;;;5.47;;
6850;SDS011;3464;42.728;23.296;2022-07-22T07:05:46;18.70;;;5.67;;
6850;SDS011;3464;42.728;23.296;2022-07-22T07:08:38;18.03;;;6.30;;
6850;SDS011;3464;42.728;23.296;2022-07-22T07:11:27;17.23;;;5.80;;
6850;SDS011;3464;42.728;23.296;2022-07-22T07:14:17;21.33;;;5.70;;
6850;SDS011;3464;42.728;23.296;2022-07-22T07:17:06;12.43;;;4.83;;
6850;SDS011;3464;42.728;23.296;2022-07-22T07:19:57;15.17;;;5.10;;
6850;SDS011;3464;42.728;23.296;2022-07-22T07:22:48;17.60;;;5.47;;
6850;SDS011;3464;42.728;23.296;2022-07-22T07:25:36;14.47;;;5.30;;
6850;SDS011;3464;42.728;23.296;2022-07-22T07:28:28;18.13;;;5.33;;
6850;SDS011;3464;42.728;23.296;2022-07-22T07:31:18;18.33;;;5.73;;
6850;SDS011;3464;42.728;23.296;2022-07-22T07:34:09;17.47;;;5.43;;
6850;SDS011;3464;42.728;23.296;2022-07-22T07:36:58;15.17;;;5.60;;
6850;SDS011;3464;42.728;23.296;2022-07-22T07:39:48;16.90;;;5.23;;
6850;SDS011;3464;42.728;23.296;2022-07-22T07:42:38;14.57;;;5.03;;
6850;SDS011;3464;42.728;23.296;2022-07-22T07:45:28;17.63;;;5.10;;
6850;SDS011;3464;42.728;23.296;2022-07-22T07:48:18;21.70;;;4.90;;
6850;SDS011;3464;42.728;23.296;2022-07-22T07:51:08;21.17;;;5.87;;
6850;SDS011;3464;42.728;23.296;2022-07-22T07:53:58;14.77;;;5.00;;
6850;SDS011;3464;42.728;23.296;2022-07-22T07:56:47;17.13;;;4.83;;
6850;SDS011;3464;42.728;23.296;2022-07-22T07:59:38;17.40;;;5.50;;
6850;SDS011;3464;42.728;23.296;2022-07-22T08:02:27;22.63;;;5.43;;
6850;SDS011;3464;42.728;23.296;2022-07-22T08:05:17;15.03;;;5.07;;
6850;SDS011;3464;42.728;23.296;2022-07-22T08:08:06;16.87;;;4.93;;
6850;SDS011;3464;42.728;23.296;2022-07-22T08:10:55;15.10;;;4.80;;
6850;SDS011;3464;42.728;23.296;2022-07-22T08:13:46;12.83;;;4.20;;
6850;SDS011;3464;42.728;23.296;2022-07-22T08:16:35;15.80;;;4.70;;
6850;SDS011;3464;42.728;23.296;2022-07-22T08:19:24;18.77;;;4.70;;
6850;SDS011;3464;42.728;23.296;2022-07-22T08:22:13;13.30;;;4.30;;
6850;SDS011;3464;42.728;23.296;2022-07-22T08:25:02;14.67;;;4.97;;
6850;SDS011;3464;42.728;23.296;2022-07-22T08:27:52;14.00;;;4.53;;
6850;SDS011;3464;42.728;23.296;2022-07-22T08:30:42;12.90;;;4.67;;
6850;SDS011;3464;42.728;23.296;2022-07-22T08:33:31;13.50;;;4.63;;
6850;SDS011;3464;42.728;23.296;2022-07-22T08:36:22;12.10;;;4.10;;
6850;SDS011;3464;42.728;23.296;2022-07-22T08:39:12;14.40;;;4.90;;
6850;SDS011;3464;42.728;23.296;2022-07-22T08:42:02;12.13;;;4.67;;
6850;SDS011;3464;42.728;23.296;2022-07-22T08:44:52;15.77;;;4.30;;
6850;SDS011;3464;42.728;23.296;2022-07-22T08:47:43;19.73;;;4.70;;
6850;SDS011;3464;42.728;23.296;2022-07-22T08:50:31;17.80;;;4.97;;
6850;SDS011;3464;42.728;23.296;2022-07-22T08:53:21;16.23;;;5.00;;
6850;SDS011;3464;42.728;23.296;2022-07-22T08:56:11;14.53;;;4.63;;
6850;SDS011;3464;42.728;23.296;2022-07-22T08:58:59;15.90;;;4.60;;
6850;SDS011;3464;42.728;23.296;2022-07-22T09:07:41;22.37;;;5.10;;
6850;SDS011;3464;42.728;23.296;2022-07-22T09:10:32;15.47;;;4.77;;
6850;SDS011;3464;42.728;23.296;2022-07-22T09:13:20;15.00;;;4.87;;
6850;SDS011;3464;42.728;23.296;2022-07-22T09:16:10;15.90;;;5.00;;
6850;SDS011;3464;42.728;23.296;2022-07-22T09:19:05;14.63;;;4.43;;
6850;SDS011;3464;42.728;23.296;2022-07-22T09:21:54;13.53;;;4.40;;
6850;SDS011;3464;42.728;23.296;2022-07-22T09:24:45;15.53;;;4.97;;
6850;SDS011;3464;42.728;23.296;2022-07-22T09:27:36;17.40;;;5.07;;
6850;SDS011;3464;42.728;23.296;2022-07-22T09:30:25;15.40;;;4.63;;
6850;SDS011;3464;42.728;23.296;2022-07-22T09:33:15;16.70;;;4.70;;
6850;SDS011;3464;42.728;23.296;2022-07-22T09:36:04;12.50;;;5.03;;
6850;SDS011;3464;42.728;23.296;2022-07-22T09:38:54;13.03;;;4.60;;
6850;SDS011;3464;42.728;23.296;2022-07-22T09:44:37;14.33;;;5.20;;
6850;SDS011;3464;42.728;23.296;2022-07-22T09:47:28;18.10;;;4.80;;
6850;SDS011;3464;42.728;23.296;2022-07-22T09:50:19;15.60;;;4.73;;
6850;SDS011;3464;42.728;23.296;2022-07-22T09:53:07;14.13;;;5.17;;
6850;SDS011;3464;42.728;23.296;2022-07-22T09:55:57;12.20;;;4.63;;
6850;SDS011;3464;42.728;23.296;2022-07-22T09:58:46;14.30;;;4.67;;
6850;SDS011;3464;42.728;23.296;2022-07-22T10:01:35;15.13;;;4.33;;
6850;SDS011;3464;42.728;23.296;2022-07-22T10:04:24;12.07;;;4.40;;
6850;SDS011;3464;42.728;23.296;2022-07-22T10:07:13;13.17;;;4.60;;
6850;SDS011;3464;42.728;23.296;2022-07-22T10:10:03;12.57;;;4.40;;
6850;SDS011;3464;42.728;23.296;2022-07-22T10:12:53;15.40;;;4.73;;
6850;SDS011;3464;42.728;23.296;2022-07-22T10:15:42;14.33;;;4.53;;
6850;SDS011;3464;42.728;23.296;2022-07-22T10:18:32;17.30;;;4.40;;
6850;SDS011;3464;42.728;23.296;2022-07-22T10:21:30;19.60;;;5.40;;
6850;SDS011;3464;42.728;23.296;2022-07-22T10:24:13;16.70;;;4.63;;
6850;SDS011;3464;42.728;23.296;2022-07-22T10:27:01;15.00;;;4.70;;
6850;SDS011;3464;42.728;23.296;2022-07-22T10:29:51;15.63;;;4.80;;
6850;SDS011;3464;42.728;23.296;2022-07-22T10:32:42;16.13;;;5.00;;
6850;SDS011;3464;42.728;23.296;2022-07-22T10:35:50;17.73;;;4.77;;
6850;SDS011;3464;42.728;23.296;2022-07-22T10:38:31;14.37;;;4.50;;
6850;SDS011;3464;42.728;23.296;2022-07-22T10:44:25;18.83;;;4.93;;
6850;SDS011;3464;42.728;23.296;2022-07-22T10:50:40;13.47;;;4.17;;
6850;SDS011;3464;42.728;23.296;2022-07-22T10:56:28;15.00;;;4.50;;
6850;SDS011;3464;42.728;23.296;2022-07-22T10:59:17;11.60;;;3.90;;
6850;SDS011;3464;42.728;23.296;2022-07-22T11:02:06;14.83;;;4.47;;
6850;SDS011;3464;42.728;23.296;2022-07-22T11:04:55;10.93;;;4.10;;
6850;SDS011;3464;42.728;23.296;2022-07-22T11:07:45;15.90;;;4.97;;
6850;SDS011;3464;42.728;23.296;2022-07-22T11:10:35;12.70;;;4.83;;
6850;SDS011;3464;42.728;23.296;2022-07-22T11:13:31;11.30;;;4.30;;
6850;SDS011;3464;42.728;23.296;2022-07-22T11:16:21;12.40;;;4.33;;
6850;SDS011;3464;42.728;23.296;2022-07-22T11:19:09;11.53;;;4.40;;
6850;SDS011;3464;42.728;23.296;2022-07-22T11:22:02;12.87;;;4.43;;
6850;SDS011;3464;42.728;23.296;2022-07-22T11:24:53;11.87;;;4.40;;
6850;SDS011;3464;42.728;23.296;2022-07-22T11:27:57;10.43;;;4.30;;
6850;SDS011;3464;42.728;23.296;2022-07-22T11:31:03;12.47;;;4.50;;
6850;SDS011;3464;42.728;23.296;2022-07-22T11:33:45;12.27;;;4.60;;
6850;SDS011;3464;42.728;23.296;2022-07-22T11:36:34;14.60;;;4.33;;
6850;SDS011;3464;42.728;23.296;2022-07-22T11:39:24;16.93;;;4.70;;
6850;SDS011;3464;42.728;23.296;2022-07-22T11:42:13;10.90;;;4.10;;
6850;SDS011;3464;42.728;23.296;2022-07-22T11:45:03;12.17;;;4.20;;
6850;SDS011;3464;42.728;23.296;2022-07-22T11:47:54;16.03;;;4.27;;
6850;SDS011;3464;42.728;23.296;2022-07-22T11:50:48;12.70;;;4.47;;
6850;SDS011;3464;42.728;23.296;2022-07-22T11:53:40;11.90;;;4.37;;
6850;SDS011;3464;42.728;23.296;2022-07-22T11:56:29;11.67;;;4.80;;
6850;SDS011;3464;42.728;23.296;2022-07-22T11:59:19;13.53;;;4.20;;
6850;SDS011;3464;42.728;23.296;2022-07-22T12:02:08;14.37;;;4.40;;
6850;SDS011;3464;42.728;23.296;2022-07-22T12:04:56;12.50;;;4.13;;
6850;SDS011;3464;42.728;23.296;2022-07-22T12:07:46;14.67;;;3.97;;
6850;SDS011;3464;42.728;23.296;2022-07-22T12:10:37;11.50;;;4.07;;
6850;SDS011;3464;42.728;23.296;2022-07-22T12:13:27;12.87;;;4.33;;
6850;SDS011;3464;42.728;23.296;2022-07-22T12:16:18;12.63;;;4.80;;
6850;SDS011;3464;42.728;23.296;2022-07-22T12:19:07;16.67;;;4.30;;
6850;SDS011;3464;42.728;23.296;2022-07-22T12:21:59;13.73;;;4.23;;
6850;SDS011;3464;42.728;23.296;2022-07-22T12:24:57;12.10;;;4.83;;
6850;SDS011;3464;42.728;23.296;2022-07-22T12:27:37;11.83;;;4.20;;
6850;SDS011;3464;42.728;23.296;2022-07-22T12:30:27;16.80;;;4.60;;
6850;SDS011;3464;42.728;23.296;2022-07-22T12:33:16;19.07;;;4.60;;
6850;SDS011;3464;42.728;23.296;2022-07-22T12:36:07;12.87;;;4.80;;
6850;SDS011;3464;42.728;23.296;2022-07-22T12:38:56;13.80;;;4.83;;
6850;SDS011;3464;42.728;23.296;2022-07-22T12:41:54;13.37;;;4.87;;
6850;SDS011;3464;42.728;23.296;2022-07-22T12:44:49;12.53;;;4.67;;
6850;SDS011;3464;42.728;23.296;2022-07-22T12:50:42;13.23;;;4.53;;
6850;SDS011;3464;42.728;23.296;2022-07-22T12:53:35;13.83;;;4.20;;
6850;SDS011;3464;42.728;23.296;2022-07-22T12:56:27;12.77;;;4.30;;
6850;SDS011;3464;42.728;23.296;2022-07-22T12:59:16;11.93;;;4.50;;
6850;SDS011;3464;42.728;23.296;2022-07-22T13:02:07;12.60;;;4.83;;
6850;SDS011;3464;42.728;23.296;2022-07-22T13:04:56;12.93;;;4.30;;
6850;SDS011;3464;42.728;23.296;2022-07-22T13:07:46;16.33;;;4.77;;
6850;SDS011;3464;42.728;23.296;2022-07-22T13:10:35;15.03;;;4.30;;
6850;SDS011;3464;42.728;23.296;2022-07-22T13:13:24;10.70;;;4.13;;
6850;SDS011;3464;42.728;23.296;2022-07-22T13:16:13;13.13;;;4.23;;
6850;SDS011;3464;42.728;23.296;2022-07-22T13:19:02;18.17;;;4.77;;
6850;SDS011;3464;42.728;23.296;2022-07-22T13:21:51;18.47;;;4.80;;
6850;SDS011;3464;42.728;23.296;2022-07-22T13:24:40;11.43;;;4.10;;
6850;SDS011;3464;42.728;23.296;2022-07-22T13:27:29;10.10;;;4.00;;
6850;SDS011;3464;42.728;23.296;2022-07-22T13:30:17;13.43;;;4.40;;
6850;SDS011;3464;42.728;23.296;2022-07-22T13:33:07;15.20;;;4.63;;
6850;SDS011;3464;42.728;23.296;2022-07-22T13:35:57;16.43;;;4.73;;
6850;SDS011;3464;42.728;23.296;2022-07-22T13:38:46;14.53;;;4.10;;
6850;SDS011;3464;42.728;23.296;2022-07-22T13:41:35;13.40;;;4.70;;
6850;SDS011;3464;42.728;23.296;2022-07-22T13:44:25;12.10;;;4.37;;
6850;SDS011;3464;42.728;23.296;2022-07-22T13:47:15;14.60;;;4.30;;
6850;SDS011;3464;42.728;23.296;2022-07-22T13:50:05;15.30;;;4.10;;
6850;SDS011;3464;42.728;23.296;2022-07-22T13:52:55;15.10;;;4.03;;
6850;SDS011;3464;42.728;23.296;2022-07-22T13:55:45;14.30;;;4.57;;
6850;SDS011;3464;42.728;23.296;2022-07-22T13:58:34;13.37;;;4.33;;
6850;SDS011;3464;42.728;23.296;2022-07-22T14:01:23;11.20;;;4.33;;
6850;SDS011;3464;42.728;23.296;2022-07-22T14:04:13;13.33;;;4.67;;
6850;SDS011;3464;42.728;23.296;2022-07-22T14:07:02;10.80;;;4.00;;
6850;SDS011;3464;42.728;23.296;2022-07-22T14:09:53;16.80;;;4.67;;
6850;SDS011;3464;42.728;23.296;2022-07-22T14:12:43;14.73;;;4.87;;
6850;SDS011;3464;42.728;23.296;2022-07-22T14:15:32;11.57;;;4.50;;
6850;SDS011;3464;42.728;23.296;2022-07-22T14:18:20;13.00;;;4.30;;
6850;SDS011;3464;42.728;23.296;2022-07-22T14:21:10;12.00;;;4.87;;
6850;SDS011;3464;42.728;23.296;2022-07-22T14:23:59;16.83;;;5.10;;
6850;SDS011;3464;42.728;23.296;2022-07-22T14:26:48;14.30;;;4.50;;
6850;SDS011;3464;42.728;23.296;2022-07-22T14:29:37;15.33;;;4.60;;
6850;SDS011;3464;42.728;23.296;2022-07-22T14:32:26;11.47;;;3.90;;
6850;SDS011;3464;42.728;23.296;2022-07-22T14:35:15;12.50;;;4.50;;
6850;SDS011;3464;42.728;23.296;2022-07-22T14:38:04;12.73;;;4.37;;
6850;SDS011;3464;42.728;23.296;2022-07-22T14:40:53;12.33;;;4.57;;
6850;SDS011;3464;42.728;23.296;2022-07-22T14:43:42;12.60;;;4.30;;
6850;SDS011;3464;42.728;23.296;2022-07-22T14:46:31;12.33;;;4.50;;
6850;SDS011;3464;42.728;23.296;2022-07-22T14:49:20;15.57;;;4.50;;
6850;SDS011;3464;42.728;23.296;2022-07-22T14:52:10;12.97;;;4.40;;
6850;SDS011;3464;42.728;23.296;2022-07-22T14:54:59;13.70;;;4.30;;
6850;SDS011;3464;42.728;23.296;2022-07-22T14:57:48;13.70;;;4.70;;
6850;SDS011;3464;42.728;23.296;2022-07-22T15:00:37;11.80;;;4.30;;
6850;SDS011;3464;42.728;23.296;2022-07-22T15:03:27;13.20;;;5.00;;
6850;SDS011;3464;42.728;23.296;2022-07-22T15:06:16;13.70;;;4.30;;
6850;SDS011;3464;42.728;23.296;2022-07-22T15:09:06;13.83;;;4.17;;
6850;SDS011;3464;42.728;23.296;2022-07-22T15:11:55;15.10;;;4.87;;
6850;SDS011;3464;42.728;23.296;2022-07-22T15:14:45;14.07;;;4.70;;
6850;SDS011;3464;42.728;23.296;2022-07-22T15:17:35;12.77;;;4.20;;
6850;SDS011;3464;42.728;23.296;2022-07-22T15:20:25;16.43;;;4.37;;
6850;SDS011;3464;42.728;23.296;2022-07-22T15:23:14;13.17;;;4.67;;
6850;SDS011;3464;42.728;23.296;2022-07-22T15:26:04;10.50;;;4.10;;
6850;SDS011;3464;42.728;23.296;2022-07-22T15:28:54;17.00;;;4.17;;
6850;SDS011;3464;42.728;23.296;2022-07-22T15:31:43;14.93;;;4.07;;
6850;SDS011;3464;42.728;23.296;2022-07-22T15:34:32;13.70;;;4.63;;
6850;SDS011;3464;42.728;23.296;2022-07-22T15:37:21;13.40;;;4.67;;
6850;SDS011;3464;42.728;23.296;2022-07-22T15:40:12;15.03;;;4.30;;
6850;SDS011;3464;42.728;23.296;2022-07-22T15:43:01;11.87;;;4.00;;
6850;SDS011;3464;42.728;23.296;2022-07-22T15:45:51;15.57;;;4.33;;
6850;SDS011;3464;42.728;23.296;2022-07-22T15:48:40;15.23;;;4.00;;
6850;SDS011;3464;42.728;23.296;2022-07-22T15:51:30;14.20;;;4.80;;
6850;SDS011;3464;42.728;23.296;2022-07-22T15:54:19;12.20;;;4.43;;
6850;SDS011;3464;42.728;23.296;2022-07-22T15:57:09;19.13;;;4.90;;
6850;SDS011;3464;42.728;23.296;2022-07-22T16:00:04;15.10;;;4.30;;
6850;SDS011;3464;42.728;23.296;2022-07-22T16:02:53;16.00;;;5.07;;
6850;SDS011;3464;42.728;23.296;2022-07-22T16:05:43;11.43;;;4.33;;
6850;SDS011;3464;42.728;23.296;2022-07-22T16:08:32;13.90;;;4.33;;
6850;SDS011;3464;42.728;23.296;2022-07-22T16:11:22;14.10;;;4.00;;
6850;SDS011;3464;42.728;23.296;2022-07-22T16:14:11;12.60;;;4.47;;
6850;SDS011;3464;42.728;23.296;2022-07-22T16:17:00;17.60;;;4.60;;
6850;SDS011;3464;42.728;23.296;2022-07-22T16:19:50;13.83;;;4.50;;
6850;SDS011;3464;42.728;23.296;2022-07-22T16:22:39;14.00;;;4.40;;
6850;SDS011;3464;42.728;23.296;2022-07-22T16:25:29;13.60;;;4.07;;
6850;SDS011;3464;42.728;23.296;2022-07-22T16:28:22;15.50;;;4.10;;
6850;SDS011;3464;42.728;23.296;2022-07-22T16:31:12;13.17;;;4.30;;
6850;SDS011;3464;42.728;23.296;2022-07-22T16:34:01;14.73;;;4.53;;
6850;SDS011;3464;42.728;23.296;2022-07-22T16:36:50;14.37;;;4.17;;
6850;SDS011;3464;42.728;23.296;2022-07-22T16:39:40;14.57;;;5.47;;
6850;SDS011;3464;42.728;23.296;2022-07-22T16:42:29;15.00;;;4.60;;
6850;SDS011;3464;42.728;23.296;2022-07-22T16:45:18;18.40;;;4.87;;
6850;SDS011;3464;42.728;23.296;2022-07-22T16:48:07;16.23;;;4.90;;
6850;SDS011;3464;42.728;23.296;2022-07-22T16:50:56;13.33;;;5.00;;
6850;SDS011;3464;42.728;23.296;2022-07-22T16:53:46;14.77;;;4.90;;
6850;SDS011;3464;42.728;23.296;2022-07-22T16:56:35;17.83;;;5.80;;
6850;SDS011;3464;42.728;23.296;2022-07-22T16:59:24;19.07;;;5.57;;
6850;SDS011;3464;42.728;23.296;2022-07-22T17:02:14;13.87;;;5.80;;
6850;SDS011;3464;42.728;23.296;2022-07-22T17:05:02;14.60;;;5.20;;
6850;SDS011;3464;42.728;23.296;2022-07-22T17:07:51;13.70;;;5.10;;
6850;SDS011;3464;42.728;23.296;2022-07-22T17:10:40;13.13;;;4.70;;
6850;SDS011;3464;42.728;23.296;2022-07-22T17:13:30;15.13;;;4.87;;
6850;SDS011;3464;42.728;23.296;2022-07-22T17:16:20;11.87;;;4.10;;
6850;SDS011;3464;42.728;23.296;2022-07-22T17:19:09;14.73;;;4.67;;
6850;SDS011;3464;42.728;23.296;2022-07-22T17:21:59;15.07;;;5.23;;
6850;SDS011;3464;42.728;23.296;2022-07-22T17:24:48;13.60;;;4.97;;